Time;durP1;ratioP1;P1;durP2;ratioP2;P2;SDS_P1;SDS_P2;PMS_P1;PMS_P2;Temp;Humidity;BMP_temperature;BMP_pressure;BME280_temperature;BME280_humidity;BME280_pressure;Samples;Min_cycle;Max_cycle;Signal;HPM_P1;HPM_P2
2023/01/30 00:01:25;;;;;;;11.07;5.55;;;;;;;18.33;42.55;101786.06;4992298;28;20038;-71
2023/01/30 00:03:51;;;;;;;11.65;5.53;;;;;;;18.29;42.68;101790.72;4998878;28;20479;-72
2023/01/30 00:06:17;;;;;;;10.45;5.20;;;;;;;18.30;41.90;101784.47;4991481;28;20045;-70
2023/01/30 00:08:42;;;;;;;8.57;6.07;;;;;;;18.31;41.56;101756.31;4991791;28;20040;-74
2023/01/30 00:11:10;;;;;;;9.60;5.28;;;;;;;18.20;41.39;101738.56;4992083;28;20450;-72
2023/01/30 00:13:36;;;;;;;9.95;6.00;;;;;;;18.30;41.21;101765.16;4991897;28;20368;-73
2023/01/30 00:16:02;;;;;;;7.72;5.43;;;;;;;18.26;41.05;101756.63;4992248;28;20050;-73
2023/01/30 00:18:28;;;;;;;10.20;5.25;;;;;;;18.26;40.68;101745.19;4997735;28;20026;-73
2023/01/30 00:20:59;;;;;;;7.63;5.00;;;;;;;18.25;40.71;101736.44;4991584;28;20380;-72
2023/01/30 00:23:25;;;;;;;7.35;5.15;;;;;;;18.27;40.52;101742.44;4991085;28;20030;-75
2023/01/30 00:25:51;;;;;;;7.93;5.20;;;;;;;18.26;40.29;101732.88;4992386;28;20053;-73
2023/01/30 00:28:16;;;;;;;7.50;5.28;;;;;;;18.23;40.26;101734.84;4991081;28;20042;-73
2023/01/30 00:30:42;;;;;;;8.13;5.28;;;;;;;18.25;40.43;101748.78;4996749;28;20371;-74
2023/01/30 00:33:08;;;;;;;8.50;5.63;;;;;;;18.22;40.36;101760.41;4995629;28;20141;-73
2023/01/30 00:35:33;;;;;;;9.52;5.35;;;;;;;18.22;40.20;101759.56;4995830;28;20057;-73
2023/01/30 00:38:00;;;;;;;8.23;5.22;;;;;;;18.22;40.36;101752.47;4995081;28;20030;-71
2023/01/30 00:40:27;;;;;;;8.43;5.53;;;;;;;18.17;40.19;101738.75;4995689;28;20031;-73
2023/01/30 00:48:24;;;;;;;8.30;4.70;;;;;;;18.20;39.79;101730.63;4995657;28;20045;-70
2023/01/30 00:50:49;;;;;;;10.45;5.20;;;;;;;18.15;39.75;101730.13;4994250;28;20057;-71
2023/01/30 00:53:15;;;;;;;7.70;5.05;;;;;;;18.18;40.02;101734.31;4995668;28;20046;-71
2023/01/30 00:55:42;;;;;;;8.77;5.40;;;;;;;18.15;39.80;101731.88;4995716;28;20505;-71
2023/01/30 00:58:07;;;;;;;8.13;5.35;;;;;;;18.13;39.90;101732.84;4994202;28;20560;-72
2023/01/30 01:00:33;;;;;;;8.32;5.10;;;;;;;18.13;39.51;101722.31;4993397;28;20030;-72
2023/01/30 01:02:59;;;;;;;7.85;5.60;;;;;;;18.11;39.66;101726.81;4994921;28;20185;-72
2023/01/30 01:05:24;;;;;;;8.25;5.20;;;;;;;18.10;39.48;101719.88;4995761;28;20068;-74
2023/01/30 01:07:49;;;;;;;8.30;5.60;;;;;;;18.10;39.60;101719.00;4996146;28;20423;-72
2023/01/30 01:10:15;;;;;;;7.28;5.10;;;;;;;18.12;39.79;101723.22;4994567;28;20030;-75
2023/01/30 01:12:48;;;;;;;8.10;5.50;;;;;;;18.11;39.59;101724.19;4994176;28;20144;-74
2023/01/30 01:15:14;;;;;;;6.87;4.67;;;;;;;18.09;39.46;101718.16;4994418;28;20041;-72
2023/01/30 01:17:41;;;;;;;7.90;5.22;;;;;;;18.07;39.40;101716.56;4993768;28;20038;-71
2023/01/30 01:20:07;;;;;;;7.22;5.22;;;;;;;18.08;39.49;101707.72;4994335;28;20044;-72
2023/01/30 01:22:32;;;;;;;7.50;4.82;;;;;;;18.06;39.60;101709.63;4993709;28;20096;-74
2023/01/30 01:24:58;;;;;;;8.32;5.93;;;;;;;18.05;39.49;101713.19;4995216;28;20521;-74
2023/01/30 01:27:23;;;;;;;8.50;6.22;;;;;;;18.07;39.31;101717.44;4993943;28;20037;-72
2023/01/30 01:29:48;;;;;;;8.25;5.35;;;;;;;18.06;39.00;101714.91;4995074;28;20487;-71
2023/01/30 01:32:14;;;;;;;7.25;5.15;;;;;;;18.04;39.36;101709.72;4995208;28;20453;-74
2023/01/30 01:34:39;;;;;;;9.35;5.30;;;;;;;18.02;39.45;101702.84;4994125;28;20026;-72
2023/01/30 01:37:04;;;;;;;6.80;5.07;;;;;;;18.00;39.32;101686.28;4994492;28;20041;-74
2023/01/30 01:41:00;;;;;;;10.20;5.90;;;;;;;18.02;39.25;101693.13;4994831;28;20771;-71
2023/01/30 01:42:16;;;;;;;6.95;4.78;;;;;;;18.00;39.43;101691.56;4994496;28;20394;-73
2023/01/30 01:45:12;;;;;;;8.90;5.60;;;;;;;17.99;39.21;101685.47;4993934;28;20038;-72
2023/01/30 01:48:01;;;;;;;8.35;5.22;;;;;;;18.02;39.29;101689.66;5000881;28;20030;-74
2023/01/30 01:50:55;;;;;;;8.38;5.13;;;;;;;18.01;39.19;101685.31;4989115;28;20565;-74
2023/01/30 01:53:25;;;;;;;7.32;4.75;;;;;;;18.00;39.32;101667.81;4993940;28;20057;-73
2023/01/30 01:55:54;;;;;;;7.13;5.18;;;;;;;17.96;39.19;101656.66;4993284;28;20038;-73
2023/01/30 01:58:32;;;;;;;7.80;4.85;;;;;;;17.97;39.22;101655.69;4993891;28;20368;-71
2023/01/30 02:01:00;;;;;;;8.73;5.40;;;;;;;17.94;39.17;101645.34;4994429;28;20030;-72
2023/01/30 02:03:29;;;;;;;7.10;5.07;;;;;;;17.94;39.20;101642.69;4992785;28;20034;-70
2023/01/30 02:05:57;;;;;;;6.55;5.13;;;;;;;17.91;39.30;101635.88;4994695;28;20038;-71
2023/01/30 02:08:33;;;;;;;7.38;4.95;;;;;;;17.90;39.13;101639.44;4992941;28;20032;-69
2023/01/30 02:11:13;;;;;;;7.45;5.25;;;;;;;17.93;39.45;101647.13;4992600;28;20038;-72
2023/01/30 02:13:38;;;;;;;7.32;5.03;;;;;;;17.90;39.16;101641.25;4993164;28;20120;-73
2023/01/30 02:16:06;;;;;;;6.93;4.88;;;;;;;17.92;39.42;101648.06;4992865;28;20893;-73
2023/01/30 02:18:34;;;;;;;6.80;4.63;;;;;;;17.91;39.10;101637.63;4993821;28;20129;-71
2023/01/30 02:21:22;;;;;;;6.90;5.00;;;;;;;17.90;39.37;101642.06;4993749;28;20177;-73
2023/01/30 02:24:18;;;;;;;8.10;5.10;;;;;;;17.91;39.07;101629.72;4992972;28;20076;-71
2023/01/30 02:26:52;;;;;;;7.53;4.82;;;;;;;17.91;39.33;101608.63;4993330;28;20030;-72
2023/01/30 02:29:23;;;;;;;6.80;4.90;;;;;;;17.91;39.07;101619.16;4993376;28;20439;-74
2023/01/30 02:32:10;;;;;;;6.80;4.75;;;;;;;17.87;39.11;101596.59;4993705;28;20070;-73
2023/01/30 02:34:56;;;;;;;8.07;4.95;;;;;;;17.88;39.09;101608.84;4993340;28;20026;-73
2023/01/30 02:37:28;;;;;;;7.55;5.07;;;;;;;17.87;39.11;101605.31;4994000;28;20038;-72
2023/01/30 02:40:08;;;;;;;7.97;4.93;;;;;;;17.86;39.37;101602.78;4992628;28;20030;-73
2023/01/30 02:42:51;;;;;;;8.10;5.18;;;;;;;17.84;39.32;101602.91;4993960;28;20046;-73
2023/01/30 02:45:34;;;;;;;6.88;5.00;;;;;;;17.84;39.17;101609.97;4992853;28;20391;-73
2023/01/30 02:48:04;;;;;;;7.68;4.50;;;;;;;17.83;39.24;101608.28;4992805;28;20034;-70
2023/01/30 02:50:42;;;;;;;8.27;4.63;;;;;;;17.82;39.11;101606.59;4993294;28;20490;-72
2023/01/30 02:53:08;;;;;;;8.30;5.32;;;;;;;17.81;39.40;101603.09;4992682;28;20050;-71
2023/01/30 02:55:34;;;;;;;6.25;4.40;;;;;;;17.83;39.32;101611.78;4993092;28;20467;-73
2023/01/30 02:58:02;;;;;;;7.60;5.03;;;;;;;17.82;39.30;101604.81;4992730;28;20026;-72
2023/01/30 03:00:40;;;;;;;6.07;4.30;;;;;;;17.82;39.15;101603.97;4992023;28;20360;-73
2023/01/30 03:03:33;;;;;;;6.95;4.68;;;;;;;17.80;39.49;101604.06;4991642;28;20367;-72
2023/01/30 03:06:32;;;;;;;7.53;4.88;;;;;;;17.82;39.23;101610.06;4993254;28;20033;-72
2023/01/30 03:09:17;;;;;;;6.90;4.78;;;;;;;17.79;39.27;101583.09;4993791;28;20031;-74
2023/01/30 03:11:48;;;;;;;7.15;5.32;;;;;;;17.75;39.41;101585.06;4992845;28;20124;-70
2023/01/30 03:14:24;;;;;;;8.13;5.30;;;;;;;17.77;39.47;101602.47;4993536;28;20154;-72
2023/01/30 03:16:53;;;;;;;7.30;5.00;;;;;;;17.79;39.34;101586.56;4992902;28;20150;-75
2023/01/30 03:19:19;;;;;;;6.75;4.75;;;;;;;17.74;39.15;101573.69;4992191;28;20221;-70
2023/01/30 03:21:45;;;;;;;7.45;5.47;;;;;;;17.78;39.35;101584.84;4992816;28;20034;-70
2023/01/30 03:24:12;;;;;;;5.88;4.20;;;;;;;17.74;39.42;101581.59;4992935;28;20030;-70
2023/01/30 03:26:45;;;;;;;7.35;5.00;;;;;;;17.74;39.54;101583.41;4992556;28;20061;-72
2023/01/30 03:29:10;;;;;;;7.43;4.97;;;;;;;17.75;39.35;101587.69;4991993;28;20030;-71
2023/01/30 03:31:36;;;;;;;8.25;4.95;;;;;;;17.76;39.57;101584.97;4993149;28;20042;-70
2023/01/30 03:34:01;;;;;;;6.97;4.95;;;;;;;17.74;39.41;101581.59;4991233;28;20467;-70
2023/01/30 03:36:26;;;;;;;7.07;4.43;;;;;;;17.73;39.45;101579.91;4992382;28;20124;-72
2023/01/30 03:38:52;;;;;;;7.45;5.05;;;;;;;17.72;39.31;101572.94;4992478;28;20459;-72
2023/01/30 03:41:17;;;;;;;7.05;4.10;;;;;;;17.74;39.36;101576.31;4991990;28;20463;-72
2023/01/30 03:43:42;;;;;;;6.68;4.97;;;;;;;17.70;39.61;101551.09;4991496;28;20033;-73
2023/01/30 03:46:08;;;;;;;6.20;4.47;;;;;;;17.72;39.60;101556.28;4992003;28;20117;-76
2023/01/30 03:48:33;;;;;;;6.38;4.30;;;;;;;17.74;39.53;101567.56;4992113;28;20080;-71
2023/01/30 03:50:58;;;;;;;8.18;4.97;;;;;;;17.74;39.73;101564.94;4993024;28;21024;-72
2023/01/30 03:53:24;;;;;;;6.63;4.40;;;;;;;17.72;39.58;101567.69;4991239;28;20050;-73
2023/01/30 03:55:49;;;;;;;6.47;4.50;;;;;;;17.72;39.44;101567.69;4992625;28;20271;-71
2023/01/30 03:58:14;;;;;;;6.25;4.50;;;;;;;17.69;39.68;101562.63;4991600;28;20041;-72
2023/01/30 04:00:39;;;;;;;7.40;4.50;;;;;;;17.68;39.84;101558.28;4992710;28;20035;-72
2023/01/30 04:03:05;;;;;;;6.28;4.32;;;;;;;17.69;39.72;101557.34;4998770;28;20041;-72
2023/01/30 04:05:30;;;;;;;6.78;4.45;;;;;;;17.68;39.79;101557.44;4996177;28;20038;-72
2023/01/30 04:07:57;;;;;;;6.18;4.20;;;;;;;17.67;39.83;101566.28;4995105;28;20487;-73
2023/01/30 04:10:22;;;;;;;6.85;4.22;;;;;;;17.65;39.96;101563.75;4995226;28;20441;-72
2023/01/30 04:12:48;;;;;;;6.60;4.15;;;;;;;17.67;39.84;101572.41;4996046;28;20045;-73
2023/01/30 04:15:13;;;;;;;6.75;4.90;;;;;;;17.68;39.69;101568.81;4996132;28;20077;-72
2023/01/30 04:17:38;;;;;;;6.30;4.15;;;;;;;17.68;39.80;101553.00;4996871;28;20041;-73
2023/01/30 04:20:04;;;;;;;5.63;3.85;;;;;;;17.69;39.82;101572.28;4995777;28;20046;-71
2023/01/30 04:22:29;;;;;;;5.43;4.05;;;;;;;17.68;39.70;101558.28;4996678;28;20025;-71
2023/01/30 04:24:55;;;;;;;5.60;3.70;;;;;;;17.70;39.57;101566.09;5001825;28;20030;-70
2023/01/30 04:27:20;;;;;;;5.45;4.20;;;;;;;17.70;39.74;101555.53;4995696;28;20045;-69
2023/01/30 04:29:45;;;;;;;6.93;4.05;;;;;;;17.62;39.84;101540.25;4996848;28;20049;-70
2023/01/30 04:32:10;;;;;;;5.63;4.03;;;;;;;17.67;39.61;101551.31;4995833;28;20042;-71
2023/01/30 04:34:36;;;;;;;5.82;4.35;;;;;;;17.67;39.70;101550.47;4995508;28;20282;-70
2023/01/30 04:37:01;;;;;;;6.65;4.13;;;;;;;17.66;39.72;101546.16;4995996;28;20041;-73
2023/01/30 04:39:26;;;;;;;5.25;3.70;;;;;;;17.68;39.84;101558.28;4994938;28;20033;-75
2023/01/30 04:41:52;;;;;;;5.78;3.78;;;;;;;17.68;39.81;101558.28;4995631;28;20030;-71
2023/01/30 04:44:18;;;;;;;5.20;3.40;;;;;;;17.67;39.91;101543.41;4995446;28;20030;-73
2023/01/30 04:46:43;;;;;;;6.35;3.55;;;;;;;17.65;39.91;101545.31;4995222;28;20121;-72
2023/01/30 04:49:09;;;;;;;4.82;3.35;;;;;;;17.67;40.09;101545.19;4996457;28;20032;-70
2023/01/30 04:51:34;;;;;;;5.10;3.20;;;;;;;17.68;39.95;101552.19;4995478;28;20049;-70
2023/01/30 04:54:00;;;;;;;5.03;3.20;;;;;;;17.68;40.14;101553.00;4994977;28;20030;-73
2023/01/30 04:56:25;;;;;;;4.93;3.30;;;;;;;17.68;40.14;101552.19;4995687;28;20435;-72
2023/01/30 04:58:50;;;;;;;5.25;3.50;;;;;;;17.65;39.96;101558.50;4994075;28;20254;-72
2023/01/30 05:01:21;;;;;;;4.77;3.17;;;;;;;17.69;39.99;101565.25;4995029;28;20114;-70
2023/01/30 05:03:51;;;;;;;5.20;3.17;;;;;;;17.66;39.98;101557.53;4995019;28;20621;-73
2023/01/30 05:06:17;;;;;;;5.72;2.90;;;;;;;17.65;40.16;101547.09;4994214;28;20041;-73
2023/01/30 05:08:42;;;;;;;5.85;2.97;;;;;;;17.65;40.25;101555.84;4994554;28;20048;-70
2023/01/30 05:11:07;;;;;;;5.18;3.05;;;;;;;17.63;40.21;101555.13;4994159;28;20375;-69
2023/01/30 05:13:33;;;;;;;5.65;3.13;;;;;;;17.68;40.15;101560.09;4994390;28;20041;-70
2023/01/30 05:15:58;;;;;;;5.18;2.72;;;;;;;17.67;39.87;101551.31;4994167;28;20030;-72
2023/01/30 05:18:23;;;;;;;4.82;2.70;;;;;;;17.65;40.31;101566.41;4994781;28;20118;-70
2023/01/30 05:20:49;;;;;;;6.72;3.10;;;;;;;17.66;40.20;101559.34;5001702;28;20034;-72
2023/01/30 05:23:14;;;;;;;5.43;2.70;;;;;;;17.68;40.25;101565.34;4995344;28;20042;-73
2023/01/30 05:25:39;;;;;;;5.10;2.60;;;;;;;17.67;40.31;101561.03;4993934;28;20035;-72
2023/01/30 05:28:05;;;;;;;5.22;2.40;;;;;;;17.67;40.47;101556.59;4995112;28;20439;-72
2023/01/30 05:30:30;;;;;;;5.20;2.57;;;;;;;17.65;40.31;101557.66;4995462;28;20034;-72
2023/01/30 05:32:57;;;;;;;4.78;2.58;;;;;;;17.67;40.17;101553.94;4993653;28;20264;-70
2023/01/30 05:35:22;;;;;;;5.22;2.55;;;;;;;17.65;40.23;101544.47;4993585;28;20030;-71
2023/01/30 05:37:51;;;;;;;6.63;2.43;;;;;;;17.66;40.36;101560.19;4994045;28;20034;-70
2023/01/30 05:40:17;;;;;;;5.22;2.20;;;;;;;17.66;40.46;101560.19;4995384;28;20732;-71
2023/01/30 05:42:42;;;;;;;4.05;1.80;;;;;;;17.68;40.37;101553.00;4993545;28;20034;-71
2023/01/30 05:45:08;;;;;;;4.45;1.80;;;;;;;17.71;40.40;101551.97;4994300;28;20038;-71
2023/01/30 05:47:33;;;;;;;3.75;1.63;;;;;;;17.74;40.54;101552.59;4994274;28;20026;-73
2023/01/30 05:49:58;;;;;;;3.77;1.60;;;;;;;17.76;40.45;101548.06;4993454;28;20706;-74
2023/01/30 05:52:24;;;;;;;4.55;1.60;;;;;;;17.82;40.48;101556.50;4993206;28;20292;-71
2023/01/30 05:54:49;;;;;;;3.42;1.60;;;;;;;17.85;40.35;101543.09;4993120;28;20038;-74
2023/01/30 05:57:14;;;;;;;4.40;1.70;;;;;;;17.94;40.20;101548.63;4993846;28;20036;-72
2023/01/30 05:59:40;;;;;;;4.50;1.52;;;;;;;17.97;39.99;101552.81;4993170;28;20034;-71
2023/01/30 06:02:05;;;;;;;4.05;1.73;;;;;;;18.03;40.28;101557.69;4993913;28;20116;-73
2023/01/30 06:04:30;;;;;;;4.05;1.70;;;;;;;18.08;40.04;101581.09;4993759;28;20669;-71
2023/01/30 06:06:56;;;;;;;3.60;1.42;;;;;;;18.10;40.19;101573.91;4994392;28;20034;-71
2023/01/30 06:09:21;;;;;;;3.92;1.70;;;;;;;18.17;40.02;101580.47;4994137;28;20530;-70
2023/01/30 06:11:46;;;;;;;4.67;1.60;;;;;;;18.16;40.10;101575.28;4994158;28;20038;-74
2023/01/30 06:14:12;;;;;;;4.60;1.50;;;;;;;18.22;40.08;101588.91;4994729;28;20267;-71
2023/01/30 06:16:37;;;;;;;3.47;1.35;;;;;;;18.24;40.08;101583.50;4993939;28;20054;-71
2023/01/30 06:19:02;;;;;;;5.45;1.80;;;;;;;18.24;40.07;101576.44;4993532;28;20115;-70
2023/01/30 06:21:28;;;;;;;3.95;1.48;;;;;;;18.27;40.03;101576.22;4993758;28;20173;-74
2023/01/30 06:23:53;;;;;;;3.63;1.30;;;;;;;18.27;39.93;101578.84;4992519;28;20058;-69
2023/01/30 06:26:18;;;;;;;3.47;1.50;;;;;;;18.30;39.90;101586.56;4992988;28;20071;-70
2023/01/30 06:28:43;;;;;;;3.97;1.42;;;;;;;18.28;39.79;101585.00;4999657;28;20296;-69
2023/01/30 06:31:09;;;;;;;2.97;1.35;;;;;;;18.33;39.88;101595.22;4993419;28;20204;-72
2023/01/30 06:33:34;;;;;;;3.95;1.52;;;;;;;18.35;39.85;101598.59;4993726;28;20030;-71
2023/01/30 06:36:00;;;;;;;3.45;1.30;;;;;;;18.34;39.81;101618.00;4993485;28;20145;-74
2023/01/30 06:38:25;;;;;;;4.60;1.58;;;;;;;18.34;39.88;101612.72;4992879;28;20030;-72
2023/01/30 06:40:51;;;;;;;3.72;1.30;;;;;;;18.37;39.88;101616.00;4993521;28;20042;-73
2023/01/30 06:43:17;;;;;;;3.30;1.30;;;;;;;18.38;39.85;101611.56;4994282;28;20049;-74
2023/01/30 06:45:42;;;;;;;3.92;1.35;;;;;;;18.37;39.78;101602.78;4993334;28;20057;-71
2023/01/30 06:48:08;;;;;;;4.13;1.40;;;;;;;18.40;39.77;101607.03;4992825;28;20434;-71
2023/01/30 06:50:34;;;;;;;3.97;1.27;;;;;;;18.36;39.75;101610.81;4992889;28;20076;-72
2023/01/30 06:53:03;;;;;;;4.78;1.50;;;;;;;18.37;39.89;101623.06;4991903;28;20133;-72
2023/01/30 06:55:29;;;;;;;3.63;1.50;;;;;;;18.37;39.75;101623.06;4991824;28;20125;-71
2023/01/30 06:58:02;;;;;;;4.90;1.55;;;;;;;18.37;39.57;101625.72;4998262;28;20117;-71
2023/01/30 07:00:27;;;;;;;3.17;1.30;;;;;;;18.40;39.71;101617.59;4991788;28;20174;-73
2023/01/30 07:02:52;;;;;;;4.82;1.48;;;;;;;18.41;39.65;101595.53;4999030;28;20387;-71
2023/01/30 07:05:18;;;;;;;4.25;1.50;;;;;;;18.45;39.68;101592.56;4991344;28;20034;-70
2023/01/30 07:07:43;;;;;;;4.10;1.52;;;;;;;18.47;39.58;101595.94;4998154;28;20042;-71
2023/01/30 07:10:10;;;;;;;3.80;1.60;;;;;;;18.46;39.49;101604.78;4992468;28;20035;-71
2023/01/30 07:12:36;;;;;;;4.57;1.77;;;;;;;18.46;39.41;101604.78;4993501;28;20286;-71
2023/01/30 07:15:03;;;;;;;6.13;1.85;;;;;;;18.49;39.45;101612.50;4992407;28;20034;-71
2023/01/30 07:17:28;;;;;;;3.83;1.30;;;;;;;18.46;39.40;101615.34;4998779;28;20391;-75
2023/01/30 07:19:53;;;;;;;6.35;1.65;;;;;;;18.50;39.26;101618.63;4992180;28;20037;-74
2023/01/30 07:22:18;;;;;;;3.90;1.30;;;;;;;18.52;39.22;101613.22;4993001;28;20037;-72
2023/01/30 07:24:44;;;;;;;4.85;1.30;;;;;;;18.48;39.39;101610.81;4991198;28;20033;-72
2023/01/30 07:27:10;;;;;;;5.80;1.55;;;;;;;18.51;39.23;101624.75;4991602;28;20121;-71
2023/01/30 07:29:37;;;;;;;4.97;1.98;;;;;;;18.49;39.19;101622.22;4991947;28;20062;-72
2023/01/30 07:32:03;;;;;;;5.80;1.60;;;;;;;18.50;39.26;101629.19;4992119;28;20467;-72
2023/01/30 07:34:28;;;;;;;4.72;1.30;;;;;;;18.49;39.42;101632.78;4992793;28;20044;-71
2023/01/30 07:36:54;;;;;;;3.75;1.33;;;;;;;18.45;39.52;101636.56;4991766;28;20105;-69
2023/01/30 07:39:19;;;;;;;6.10;1.20;;;;;;;18.49;39.44;101641.53;4991581;28;20034;-71
2023/01/30 07:41:44;;;;;;;5.30;1.80;;;;;;;18.48;39.75;101642.50;4990490;28;20191;-73
2023/01/30 07:44:11;;;;;;;4.82;1.20;;;;;;;18.49;39.74;101645.97;4992262;28;20033;-74
2023/01/30 07:46:37;;;;;;;6.93;1.30;;;;;;;18.50;39.79;101639.75;4992823;28;20049;-71
2023/01/30 07:49:06;;;;;;;4.60;1.38;;;;;;;18.54;39.80;101648.28;4992403;28;20030;-73
2023/01/30 07:51:32;;;;;;;5.10;1.50;;;;;;;18.56;39.95;101643.75;4991250;28;20106;-72
2023/01/30 07:53:57;;;;;;;5.15;1.35;;;;;;;18.55;39.85;101655.25;4991895;28;20113;-71
2023/01/30 07:56:23;;;;;;;3.33;1.00;;;;;;;18.54;40.08;101653.56;4991920;28;20030;-70
2023/01/30 07:58:53;;;;;;;5.93;1.40;;;;;;;18.56;39.77;101657.78;4992394;28;20038;-73
2023/01/30 08:01:18;;;;;;;5.43;1.50;;;;;;;18.57;39.84;101642.81;4992682;28;20083;-72
2023/01/30 08:03:45;;;;;;;4.78;1.70;;;;;;;18.54;39.80;101653.56;4992186;28;20421;-71
2023/01/30 08:06:12;;;;;;;6.10;1.60;;;;;;;18.54;39.65;101645.66;4992076;28;20045;-72
2023/01/30 08:08:38;;;;;;;6.20;1.52;;;;;;;18.54;39.70;101657.06;4992342;28;20045;-71
2023/01/30 08:11:03;;;;;;;7.28;1.98;;;;;;;18.57;39.98;101645.44;4990077;28;20030;-72
2023/01/30 08:13:28;;;;;;;6.43;1.75;;;;;;;18.55;39.92;101655.25;4988988;28;20042;-72
2023/01/30 08:15:54;;;;;;;3.83;1.40;;;;;;;18.58;39.85;101668.22;4989432;28;21031;-72
2023/01/30 08:18:19;;;;;;;5.55;1.48;;;;;;;18.55;40.16;101669.31;4990956;28;20045;-73
2023/01/30 08:20:44;;;;;;;4.55;1.90;;;;;;;18.61;40.41;101668.00;4990811;28;20628;-69
2023/01/30 08:23:10;;;;;;;6.57;1.55;;;;;;;18.60;40.27;101672.47;4991957;28;20562;-69
2023/01/30 08:25:36;;;;;;;4.03;1.23;;;;;;;18.65;40.33;101680.06;4991912;28;20455;-71
2023/01/30 08:28:01;;;;;;;4.65;1.65;;;;;;;18.63;40.38;101682.81;4989486;28;20030;-71
2023/01/30 08:30:29;;;;;;;7.03;1.50;;;;;;;18.64;40.41;101681.88;4991413;28;20041;-71
2023/01/30 08:32:54;;;;;;;6.95;1.55;;;;;;;18.64;40.29;101681.00;4991760;28;20034;-70
2023/01/30 08:35:19;;;;;;;5.95;1.35;;;;;;;18.66;40.35;101685.22;4990950;28;20034;-70
2023/01/30 08:37:44;;;;;;;5.45;1.38;;;;;;;18.64;40.36;101683.63;4991880;28;20432;-71
2023/01/30 08:40:10;;;;;;;5.43;1.52;;;;;;;18.68;40.23;101685.13;4991550;28;20042;-70
2023/01/30 08:42:36;;;;;;;5.07;1.60;;;;;;;18.65;40.45;101687.97;4991942;28;20088;-70
2023/01/30 08:45:01;;;;;;;4.47;1.40;;;;;;;18.67;40.14;101686.94;4991681;28;20042;-69
2023/01/30 08:47:26;;;;;;;6.15;1.48;;;;;;;18.64;40.20;101700.34;4991798;28;20043;-70
2023/01/30 08:49:52;;;;;;;8.15;1.70;;;;;;;18.67;39.83;101697.50;4992936;28;20075;-69
2023/01/30 08:52:18;;;;;;;5.18;1.30;;;;;;;18.65;39.92;101696.72;4994986;28;20425;-69
2023/01/30 08:54:43;;;;;;;5.53;1.73;;;;;;;18.64;39.94;101696.84;4995059;28;20061;-68
2023/01/30 08:57:09;;;;;;;8.20;2.22;;;;;;;18.65;39.80;101693.25;4994778;28;20070;-70
2023/01/30 08:59:34;;;;;;;6.70;1.70;;;;;;;18.64;39.87;101699.47;4995776;28;20029;-69
2023/01/30 09:01:59;;;;;;;7.97;1.63;;;;;;;18.65;39.62;101709.09;4994584;28;20038;-71
2023/01/30 09:04:25;;;;;;;6.20;1.90;;;;;;;18.61;39.86;101702.34;4995153;28;21026;-69
2023/01/30 09:06:51;;;;;;;5.05;1.45;;;;;;;18.60;40.24;101705.94;4994034;28;20033;-69
2023/01/30 09:09:16;;;;;;;4.28;1.30;;;;;;;18.60;40.15;101722.63;4994360;28;20133;-69
2023/01/30 09:11:41;;;;;;;7.68;2.33;;;;;;;18.64;40.13;101729.38;4993819;28;20069;-71
2023/01/30 09:14:07;;;;;;;6.93;1.85;;;;;;;18.65;40.37;101731.06;4994249;28;20030;-68
2023/01/30 09:16:32;;;;;;;6.53;1.80;;;;;;;18.66;40.53;101721.38;4993727;28;20089;-70
2023/01/30 09:18:57;;;;;;;7.20;1.80;;;;;;;18.72;40.64;101734.13;4991171;28;20287;-75
2023/01/30 09:21:23;;;;;;;8.82;1.73;;;;;;;18.73;40.99;101729.69;4993227;28;20125;-72
2023/01/30 09:23:48;;;;;;;5.68;1.77;;;;;;;18.79;41.34;101734.56;4992736;28;20045;-69
2023/01/30 09:26:14;;;;;;;5.78;1.70;;;;;;;18.79;41.47;101750.41;4993151;28;20771;-69
2023/01/30 09:28:39;;;;;;;7.82;1.85;;;;;;;18.77;41.92;101739.94;4993743;28;20034;-72
2023/01/30 09:31:05;;;;;;;8.60;1.90;;;;;;;18.83;42.02;101744.78;4992621;28;20057;-69
2023/01/30 09:33:30;;;;;;;8.50;1.73;;;;;;;18.84;42.23;101745.66;4992578;28;20042;-71
2023/01/30 09:35:56;;;;;;;6.05;1.50;;;;;;;18.85;42.14;101747.38;4993180;28;20046;-69
2023/01/30 09:38:21;;;;;;;7.05;1.60;;;;;;;18.83;42.22;101744.78;4993569;28;20047;-70
2023/01/30 09:40:57;;;;;;;7.47;2.00;;;;;;;18.83;42.29;101751.84;4993650;28;20030;-70
2023/01/30 09:43:52;;;;;;;9.18;1.80;;;;;;;18.86;42.25;101759.59;4999063;28;20088;-71
2023/01/30 09:46:26;;;;;;;11.52;2.00;;;;;;;18.84;42.20;101761.50;4992270;28;20026;-70
2023/01/30 09:49:00;;;;;;;8.68;1.90;;;;;;;18.82;42.10;101760.75;4992357;28;20034;-70
2023/01/30 09:51:45;;;;;;;7.63;1.80;;;;;;;18.81;42.01;101764.31;4993015;28;20077;-70
2023/01/30 09:54:32;;;;;;;6.38;1.80;;;;;;;18.85;41.78;101768.50;4993202;28;20039;-70
2023/01/30 09:57:06;;;;;;;5.28;1.35;;;;;;;18.83;41.76;101765.06;4993697;28;20062;-71
2023/01/30 09:59:38;;;;;;;;;;;;;;;18.91;41.58;101772.47;4994092;28;20490;-68
2023/01/30 10:02:24;;;;;;;9.05;2.15;;;;;;;18.87;41.73;101773.63;4993833;28;20000;-67
2023/01/30 10:04:51;;;;;;;6.38;1.77;;;;;;;18.92;41.91;101776.81;4992441;28;20033;-70
2023/01/30 10:07:22;;;;;;;9.48;1.95;;;;;;;18.88;42.33;101772.69;4993154;28;20119;-66
2023/01/30 10:10:05;;;;;;;8.57;1.90;;;;;;;18.92;42.68;101776.81;4992240;28;20108;-66
2023/01/30 10:12:44;;;;;;;8.65;1.95;;;;;;;18.91;42.73;101769.84;4992985;28;20034;-67
2023/01/30 10:15:33;;;;;;;10.50;2.08;;;;;;;18.96;42.69;101776.50;4992823;28;20078;-67
2023/01/30 10:18:17;;;;;;;8.63;2.13;;;;;;;18.99;42.97;101788.63;4992860;28;20029;-68
2023/01/30 10:21:01;;;;;;;7.00;1.90;;;;;;;18.95;42.65;101787.19;4991805;28;20061;-70
2023/01/30 10:23:38;;;;;;;6.00;1.50;;;;;;;18.95;42.34;101788.00;4992173;28;20041;-69
2023/01/30 10:26:10;;;;;;;11.10;1.90;;;;;;;18.99;42.74;101793.91;4990456;28;20066;-69
2023/01/30 10:28:58;;;;;;;7.75;1.80;;;;;;;18.99;43.10;101788.63;4993565;28;20038;-71
2023/01/30 10:31:29;;;;;;;8.93;1.88;;;;;;;18.98;42.67;101790.44;4999756;28;20044;-67
2023/01/30 10:34:02;;;;;;;6.88;1.75;;;;;;;18.99;42.84;101797.44;4993048;28;20097;-71
2023/01/30 10:36:55;;;;;;;8.20;1.90;;;;;;;19.01;42.86;101802.59;4993252;28;20037;-72
2023/01/30 10:39:26;;;;;;;9.57;2.00;;;;;;;19.01;42.76;101802.59;4992769;28;20092;-74
2023/01/30 10:42:26;;;;;;;7.90;2.45;;;;;;;19.05;42.98;101798.78;4992606;28;20034;-70
2023/01/30 10:44:53;;;;;;;11.73;1.70;;;;;;;19.07;43.02;101796.88;4992619;28;20069;-68
2023/01/30 10:47:39;;;;;;;6.45;1.77;;;;;;;19.12;43.54;101809.75;4992213;28;20037;-70
2023/01/30 10:50:55;;;;;;;9.63;1.75;;;;;;;19.14;43.47;101810.50;4991535;28;20033;-69
2023/01/30 10:53:40;;;;;;;7.40;1.85;;;;;;;19.10;43.86;101811.66;4978319;28;20050;-69
2023/01/30 10:56:21;;;;;;;;;;;;;;;19.20;43.54;101820.63;4993207;28;20022;-70
2023/01/30 10:59:31;;;;;;;6.65;1.40;;;;;;;19.13;43.62;101816.75;4990522;28;19928;-70
2023/01/30 11:02:26;;;;;;;7.13;1.90;;;;;;;19.14;43.58;101818.44;4991660;28;20054;-71
2023/01/30 11:05:01;;;;;;;6.40;1.70;;;;;;;19.07;43.84;101804.78;4990786;28;20034;-70
2023/01/30 11:07:30;;;;;;;9.73;1.52;;;;;;;19.03;43.79;101806.81;4991304;28;20038;-72
2023/01/30 11:09:56;;;;;;;8.88;1.65;;;;;;;19.08;43.78;101818.88;4992491;28;20387;-75
2023/01/30 11:12:22;;;;;;;5.60;1.50;;;;;;;19.11;43.53;101801.00;4992587;28;20065;-72
2023/01/30 11:14:57;;;;;;;8.57;1.60;;;;;;;19.11;43.30;101823.94;4991219;28;20181;-69
2023/01/30 11:17:49;;;;;;;9.70;1.92;;;;;;;19.12;43.10;101821.19;4990968;28;20037;-70
2023/01/30 11:20:17;;;;;;;9.10;1.80;;;;;;;19.10;42.97;101823.06;4988776;28;20088;-74
2023/01/30 11:22:59;;;;;;;6.85;1.90;;;;;;;19.11;43.41;101823.94;4991532;28;20049;-70
2023/01/30 11:25:24;;;;;;;7.22;1.75;;;;;;;19.12;43.24;101823.81;4991422;28;20030;-72
2023/01/30 11:28:01;;;;;;;13.40;1.80;;;;;;;19.15;43.50;101828.03;4990943;28;20041;-69
2023/01/30 11:30:28;;;;;;;11.32;1.95;;;;;;;19.12;43.54;101815.03;4990695;28;20030;-72
2023/01/30 11:33:09;;;;;;;9.30;1.77;;;;;;;19.08;43.46;101810.94;4990878;28;20034;-69
2023/01/30 11:35:42;;;;;;;7.47;1.65;;;;;;;19.10;42.94;101820.44;4991530;28;20371;-73
2023/01/30 11:38:52;;;;;;;9.77;1.80;;;;;;;19.15;43.69;101822.75;4989227;28;20419;-71
2023/01/30 11:41:21;;;;;;;10.93;1.85;;;;;;;19.12;43.45;101836.16;4976513;28;20246;-71